Plainview, Arkansas
Current Conditions -  °F | °C
As of 7:53 PM on Sunday 23 Nov 2014 (Local Time) from KRUE Reporting Station
Haze Haze  
Wind Chill: 56°   Ceiling: Unl
Heat Index: 56°   Visibility: 1.2mi
Dew Point: 56°   Wind: 0mph
Humidity: 100%   Direction: NA
Pressure: 29.36"   Gusts: NA
Location:  34.99°N, 93.3°W
Report Text: KRUE 240153Z AUTO 00000KT 1 1/4SM BR CLR 13/13 A2936 RMK AO2 SLP939 T01330133
Loading
Personal Weather Stations






























Interactive Weather Map New forecast layout! Learn more

10-Day Weather Forecast

Advertisements
Track Severe Weather on mobile